createdAt,value
2023-02-26T00:00:07.974Z,0.00
2023-02-26T00:01:07.976Z,0.00
2023-02-26T00:02:08.031Z,0.00
2023-02-26T00:03:08.080Z,0.00
2023-02-26T00:04:07.948Z,0.00
2023-02-26T00:05:07.938Z,0.00
2023-02-26T00:06:07.951Z,0.00
2023-02-26T00:07:07.928Z,0.00
2023-02-26T00:08:07.964Z,0.00
2023-02-26T00:09:07.919Z,0.00
2023-02-26T00:10:07.881Z,0.00
2023-02-26T00:11:07.914Z,0.00
2023-02-26T00:12:07.845Z,0.00
2023-02-26T00:13:07.878Z,0.00
2023-02-26T00:14:07.852Z,0.00
2023-02-26T00:15:07.851Z,0.00
2023-02-26T00:16:07.864Z,0.00
2023-02-26T00:17:07.851Z,0.00
2023-02-26T00:18:07.860Z,0.00
2023-02-26T00:19:07.816Z,0.00
2023-02-26T00:20:07.815Z,0.00
2023-02-26T00:21:07.795Z,0.00
2023-02-26T00:22:07.748Z,0.00
2023-02-26T00:23:07.743Z,0.00
2023-02-26T00:24:07.786Z,0.00
2023-02-26T00:25:07.722Z,0.00
2023-02-26T00:26:07.762Z,0.00
2023-02-26T00:27:07.753Z,0.00
2023-02-26T00:28:07.703Z,0.00
2023-02-26T00:29:07.729Z,0.00
2023-02-26T00:30:07.665Z,0.00
2023-02-26T00:31:07.796Z,0.00
2023-02-26T00:32:07.752Z,0.00
2023-02-26T00:33:07.654Z,0.00
2023-02-26T00:34:07.650Z,0.00
2023-02-26T00:35:07.621Z,0.00
2023-02-26T00:36:07.611Z,0.00
2023-02-26T00:37:07.634Z,0.00
2023-02-26T00:38:07.605Z,0.00
2023-02-26T00:39:07.633Z,0.00
2023-02-26T00:40:07.616Z,0.00
2023-02-26T00:41:07.599Z,0.00
2023-02-26T00:42:07.631Z,0.00
2023-02-26T00:43:07.573Z,0.00
2023-02-26T00:44:07.532Z,0.00
2023-02-26T00:45:07.527Z,0.00
2023-02-26T00:46:07.589Z,0.00
2023-02-26T00:47:15.113Z,0.00
2023-02-26T00:48:07.487Z,0.00
2023-02-26T00:49:07.497Z,0.00
2023-02-26T00:50:07.488Z,0.00
2023-02-26T00:51:07.471Z,0.00
2023-02-26T00:52:07.476Z,0.00
2023-02-26T00:53:07.547Z,0.00
2023-02-26T00:54:07.456Z,0.00
2023-02-26T00:55:07.426Z,0.00
2023-02-26T00:56:07.453Z,0.00
2023-02-26T00:57:07.440Z,0.00
2023-02-26T00:58:07.410Z,0.00
2023-02-26T00:59:07.463Z,0.00
2023-02-26T01:00:07.378Z,0.00
2023-02-26T01:01:07.421Z,0.00
2023-02-26T01:02:07.354Z,0.00
2023-02-26T01:03:07.344Z,0.00
2023-02-26T01:04:07.394Z,0.00
2023-02-26T01:05:07.393Z,0.00
2023-02-26T01:06:07.302Z,0.00
2023-02-26T01:07:07.324Z,0.00
2023-02-26T01:08:07.280Z,0.00
2023-02-26T01:09:07.304Z,0.00
2023-02-26T01:10:07.267Z,0.00
2023-02-26T01:11:07.354Z,0.00
2023-02-26T01:12:07.330Z,0.00
2023-02-26T01:13:07.262Z,0.00
2023-02-26T01:14:07.236Z,0.00
2023-02-26T01:15:07.219Z,0.00
2023-02-26T01:16:07.316Z,0.00
2023-02-26T01:17:07.240Z,0.00
2023-02-26T01:18:08.633Z,0.00
2023-02-26T01:19:07.181Z,0.00
2023-02-26T01:20:07.160Z,0.00
2023-02-26T01:21:07.165Z,0.00
2023-02-26T01:22:07.146Z,0.00
2023-02-26T01:23:07.171Z,0.00
2023-02-26T01:24:07.123Z,0.00
2023-02-26T01:25:07.162Z,0.00
2023-02-26T01:26:07.121Z,0.00
2023-02-26T01:27:07.096Z,0.00
2023-02-26T01:28:07.309Z,0.00
2023-02-26T01:29:07.089Z,0.00
2023-02-26T01:30:07.107Z,0.00
2023-02-26T01:31:07.121Z,0.00
2023-02-26T01:32:07.313Z,0.00
2023-02-26T01:33:07.050Z,0.00
2023-02-26T01:34:07.114Z,0.00
2023-02-26T01:35:07.053Z,0.00
2023-02-26T01:36:07.020Z,0.00
2023-02-26T01:37:06.993Z,0.00
2023-02-26T01:38:06.991Z,0.00
2023-02-26T01:39:07.021Z,0.00
2023-02-26T01:40:07.028Z,0.00
2023-02-26T01:41:06.965Z,0.00
2023-02-26T01:42:06.957Z,0.00
2023-02-26T01:43:07.031Z,0.00
2023-02-26T01:44:07.099Z,0.00
2023-02-26T01:45:06.930Z,0.00
2023-02-26T01:46:07.131Z,0.00
2023-02-26T01:47:06.965Z,0.00
2023-02-26T01:48:07.062Z,0.00
2023-02-26T01:49:06.883Z,0.00
2023-02-26T01:50:07.386Z,0.00
2023-02-26T01:51:06.941Z,0.00
2023-02-26T01:52:06.873Z,0.00
2023-02-26T01:53:06.866Z,0.00
2023-02-26T01:54:06.873Z,0.00
2023-02-26T01:55:06.823Z,0.00
2023-02-26T01:56:06.810Z,0.00
2023-02-26T01:57:06.854Z,0.00
2023-02-26T01:58:06.793Z,0.00
2023-02-26T01:59:06.790Z,0.00
2023-02-26T02:00:06.810Z,0.00
2023-02-26T02:01:06.802Z,0.00
2023-02-26T02:02:06.768Z,0.00
2023-02-26T02:03:06.882Z,0.00
2023-02-26T02:04:06.806Z,0.00
2023-02-26T02:05:06.815Z,0.00
2023-02-26T02:06:06.716Z,0.00
2023-02-26T02:07:06.716Z,0.00
2023-02-26T02:08:06.713Z,0.00
2023-02-26T02:09:06.678Z,0.00
2023-02-26T02:10:06.700Z,0.00
2023-02-26T02:11:06.663Z,0.00
2023-02-26T02:12:06.647Z,0.00
2023-02-26T02:13:06.638Z,0.00
2023-02-26T02:14:06.624Z,0.00
2023-02-26T02:15:06.637Z,0.00
2023-02-26T02:16:06.681Z,0.00
2023-02-26T02:17:06.597Z,0.00
2023-02-26T02:18:06.609Z,0.00
2023-02-26T02:19:06.584Z,0.00
2023-02-26T02:20:06.566Z,0.00
2023-02-26T02:21:06.603Z,0.00
2023-02-26T02:22:06.546Z,0.00
2023-02-26T02:23:06.579Z,0.00
2023-02-26T02:24:06.532Z,0.00
2023-02-26T02:25:06.527Z,0.00
2023-02-26T02:26:06.553Z,0.00
2023-02-26T02:27:06.502Z,0.00
2023-02-26T02:28:06.488Z,0.00
2023-02-26T02:29:06.481Z,0.00
2023-02-26T02:30:06.477Z,0.00
2023-02-26T02:31:06.596Z,0.00
2023-02-26T02:32:06.691Z,0.00
2023-02-26T02:33:06.435Z,0.00
2023-02-26T02:34:06.421Z,0.00
2023-02-26T02:35:06.408Z,0.00
2023-02-26T02:36:06.406Z,0.00
2023-02-26T02:37:06.404Z,0.00
2023-02-26T02:38:06.454Z,0.00
2023-02-26T02:39:06.374Z,0.00
2023-02-26T02:40:06.418Z,0.00
2023-02-26T02:41:06.362Z,0.00
2023-02-26T02:42:06.359Z,0.00
2023-02-26T02:43:06.390Z,0.00
2023-02-26T02:44:06.332Z,0.00
2023-02-26T02:45:06.340Z,0.00
2023-02-26T02:46:06.328Z,0.00
2023-02-26T02:47:06.383Z,0.00
2023-02-26T02:48:06.326Z,0.00
2023-02-26T02:49:06.384Z,0.00
2023-02-26T02:50:06.274Z,0.00
2023-02-26T02:51:06.257Z,0.00
2023-02-26T02:52:06.247Z,0.00
2023-02-26T02:53:06.233Z,0.00
2023-02-26T02:54:06.323Z,0.00
2023-02-26T02:55:06.220Z,0.00
2023-02-26T02:56:06.225Z,0.00
2023-02-26T02:57:06.201Z,0.00
2023-02-26T02:58:06.192Z,0.00
2023-02-26T02:59:06.207Z,0.00
2023-02-26T03:00:06.266Z,0.00
2023-02-26T03:01:06.279Z,0.00
2023-02-26T03:02:10.938Z,0.00
2023-02-26T03:03:06.166Z,0.00
2023-02-26T03:04:06.183Z,0.00
2023-02-26T03:05:06.173Z,0.00
2023-02-26T03:06:06.113Z,0.00
2023-02-26T03:07:06.137Z,0.00
2023-02-26T03:08:06.103Z,0.00
2023-02-26T03:09:06.086Z,0.00
2023-02-26T03:10:06.177Z,0.00
2023-02-26T03:11:06.054Z,0.00
2023-02-26T03:12:06.039Z,0.00
2023-02-26T03:13:06.038Z,0.00
2023-02-26T03:14:06.024Z,0.00
2023-02-26T03:15:06.106Z,0.00
2023-02-26T03:16:06.078Z,0.00
2023-02-26T03:17:05.988Z,0.00
2023-02-26T03:18:05.991Z,0.00
2023-02-26T03:19:05.994Z,0.00
2023-02-26T03:20:06.035Z,0.00
2023-02-26T03:21:06.008Z,0.00
2023-02-26T03:22:05.977Z,0.00
2023-02-26T03:23:05.966Z,0.00
2023-02-26T03:24:05.935Z,0.00
2023-02-26T03:25:05.930Z,0.00
2023-02-26T03:26:05.917Z,0.00
2023-02-26T03:27:05.957Z,0.00
2023-02-26T03:28:05.893Z,0.00
2023-02-26T03:29:05.880Z,0.00
2023-02-26T03:30:05.866Z,0.00
2023-02-26T03:31:05.951Z,0.00
2023-02-26T03:32:16.654Z,0.00
2023-02-26T03:33:05.931Z,0.00
2023-02-26T03:34:05.840Z,0.00
2023-02-26T03:35:05.838Z,0.00
2023-02-26T03:36:05.844Z,0.00
2023-02-26T03:37:05.801Z,0.00
2023-02-26T03:38:05.821Z,0.00
2023-02-26T03:39:05.783Z,0.00
2023-02-26T03:40:05.867Z,0.00
2023-02-26T03:41:05.772Z,0.00
2023-02-26T03:42:05.772Z,0.00
2023-02-26T03:43:05.748Z,0.00
2023-02-26T03:44:05.780Z,0.00
2023-02-26T03:45:05.801Z,0.00
2023-02-26T03:46:05.745Z,0.00
2023-02-26T03:47:05.714Z,0.00
2023-02-26T03:48:05.763Z,0.00
2023-02-26T03:49:05.772Z,0.00
2023-02-26T03:50:05.748Z,0.00
2023-02-26T03:51:05.739Z,0.00
2023-02-26T03:52:05.694Z,0.00
2023-02-26T03:53:05.681Z,0.00
2023-02-26T03:54:05.670Z,0.00
2023-02-26T03:55:05.633Z,0.00
2023-02-26T03:56:05.612Z,0.00
2023-02-26T03:57:05.622Z,0.00
2023-02-26T03:58:05.663Z,0.00
2023-02-26T03:59:05.601Z,0.00
2023-02-26T04:00:05.581Z,0.00
2023-02-26T04:01:05.555Z,0.00
2023-02-26T04:02:05.694Z,0.00
2023-02-26T04:03:05.593Z,0.00
2023-02-26T04:04:05.543Z,0.00
2023-02-26T04:05:05.614Z,0.00
2023-02-26T04:06:05.540Z,0.00
2023-02-26T04:07:05.495Z,0.00
2023-02-26T04:08:05.527Z,0.00
2023-02-26T04:09:05.488Z,0.00
2023-02-26T04:10:05.933Z,0.00
2023-02-26T04:11:05.510Z,0.00
2023-02-26T04:12:05.460Z,0.00
2023-02-26T04:13:05.463Z,0.00
2023-02-26T04:14:05.442Z,0.00
2023-02-26T04:15:05.430Z,0.00
2023-02-26T04:16:05.472Z,0.00
2023-02-26T04:17:05.415Z,0.00
2023-02-26T04:18:05.451Z,0.00
2023-02-26T04:19:05.444Z,0.00
2023-02-26T04:20:05.445Z,0.00
2023-02-26T04:21:05.425Z,0.00
2023-02-26T04:22:05.378Z,0.00
2023-02-26T04:23:05.345Z,0.00
2023-02-26T04:24:05.366Z,0.00
2023-02-26T04:25:05.333Z,0.00
2023-02-26T04:26:05.365Z,0.00
2023-02-26T04:27:05.336Z,0.00
2023-02-26T04:28:05.302Z,0.00
2023-02-26T04:29:05.286Z,0.00
2023-02-26T04:30:05.294Z,0.00
2023-02-26T04:31:05.360Z,0.00
2023-02-26T04:32:05.493Z,0.00
2023-02-26T04:33:05.331Z,0.00
2023-02-26T04:34:05.277Z,0.00
2023-02-26T04:35:05.216Z,0.00
2023-02-26T04:36:05.232Z,0.00
2023-02-26T04:37:05.213Z,0.00
2023-02-26T04:38:05.210Z,0.00
2023-02-26T04:39:05.238Z,0.00
2023-02-26T04:40:05.260Z,0.00
2023-02-26T04:41:05.155Z,0.00
2023-02-26T04:42:05.164Z,0.00
2023-02-26T04:43:05.165Z,0.00
2023-02-26T04:44:05.159Z,0.00
2023-02-26T04:45:05.118Z,0.00
2023-02-26T04:46:05.201Z,0.00
2023-02-26T04:47:05.115Z,0.00
2023-02-26T04:48:05.123Z,0.00
2023-02-26T04:49:05.090Z,0.00
2023-02-26T04:50:05.110Z,0.00
2023-02-26T04:51:05.080Z,0.00
2023-02-26T04:52:05.119Z,0.00
2023-02-26T04:53:05.043Z,0.00
2023-02-26T04:54:05.098Z,0.00
2023-02-26T04:55:05.053Z,0.00
2023-02-26T04:56:05.051Z,0.00
2023-02-26T04:57:05.013Z,0.00
2023-02-26T04:58:05.002Z,0.00
2023-02-26T04:59:04.976Z,0.00
2023-02-26T05:00:04.999Z,0.00
2023-02-26T05:01:04.992Z,0.00
2023-02-26T05:02:04.956Z,0.00
2023-02-26T05:03:04.941Z,0.00
2023-02-26T05:04:05.085Z,0.00
2023-02-26T05:05:04.929Z,0.00
2023-02-26T05:06:04.937Z,0.00
2023-02-26T05:07:04.901Z,0.00
2023-02-26T05:08:04.893Z,0.00
2023-02-26T05:09:04.882Z,0.00
2023-02-26T05:10:04.926Z,0.00
2023-02-26T05:11:04.864Z,0.00
2023-02-26T05:12:04.895Z,0.00
2023-02-26T05:13:04.888Z,0.00
2023-02-26T05:14:04.845Z,0.00
2023-02-26T05:15:04.844Z,0.00
2023-02-26T05:16:04.878Z,0.00
2023-02-26T05:17:04.800Z,0.00
2023-02-26T05:18:04.800Z,0.00
2023-02-26T05:19:04.895Z,0.00
2023-02-26T05:20:04.778Z,0.00
2023-02-26T05:21:04.804Z,0.00
2023-02-26T05:22:04.757Z,0.00
2023-02-26T05:23:04.752Z,0.00
2023-02-26T05:24:04.746Z,0.00
2023-02-26T05:25:04.749Z,0.00
2023-02-26T05:26:04.727Z,0.00
2023-02-26T05:27:04.737Z,0.00
2023-02-26T05:28:04.771Z,0.00
2023-02-26T05:29:04.692Z,0.00
2023-02-26T05:30:04.729Z,0.00
2023-02-26T05:31:04.801Z,0.00
2023-02-26T05:32:04.732Z,0.00
2023-02-26T05:33:04.672Z,0.00
2023-02-26T05:34:04.653Z,0.00
2023-02-26T05:35:04.623Z,0.00
2023-02-26T05:36:04.623Z,0.00
2023-02-26T05:37:04.663Z,0.00
2023-02-26T05:38:04.606Z,0.00
2023-02-26T05:39:04.611Z,0.00
2023-02-26T05:40:04.586Z,0.00
2023-02-26T05:41:04.573Z,0.00
2023-02-26T05:42:04.583Z,0.00
2023-02-26T05:43:04.597Z,0.00
2023-02-26T05:44:04.567Z,0.00
2023-02-26T05:45:04.606Z,0.00
2023-02-26T05:46:04.524Z,0.00
2023-02-26T05:47:04.649Z,0.00
2023-02-26T05:48:12.053Z,0.00
2023-02-26T05:49:04.487Z,0.00
2023-02-26T05:50:04.531Z,0.00
2023-02-26T05:51:04.509Z,0.00
2023-02-26T05:52:04.471Z,0.00
2023-02-26T05:53:04.454Z,0.00
2023-02-26T05:54:04.457Z,0.00
2023-02-26T05:55:04.444Z,0.00
2023-02-26T05:56:04.518Z,0.00
2023-02-26T05:57:04.454Z,0.00
2023-02-26T05:58:04.422Z,0.00
2023-02-26T05:59:04.409Z,0.00
2023-02-26T06:00:04.422Z,0.00
2023-02-26T06:01:04.406Z,0.00
2023-02-26T06:02:04.478Z,0.00
2023-02-26T06:03:04.428Z,0.00
2023-02-26T06:04:04.351Z,0.00
2023-02-26T06:05:04.333Z,0.00
2023-02-26T06:06:04.335Z,0.00
2023-02-26T06:07:04.319Z,0.00
2023-02-26T06:08:04.312Z,0.00
2023-02-26T06:09:04.295Z,0.00
2023-02-26T06:10:04.279Z,0.00
2023-02-26T06:11:04.298Z,0.00
2023-02-26T06:12:04.288Z,0.00
2023-02-26T06:13:04.290Z,0.00
2023-02-26T06:14:04.275Z,0.00
2023-02-26T06:15:04.231Z,0.00
2023-02-26T06:16:04.297Z,0.00
2023-02-26T06:17:04.212Z,0.00
2023-02-26T06:18:04.204Z,0.00
2023-02-26T06:19:04.216Z,0.00
2023-02-26T06:20:04.179Z,0.00
2023-02-26T06:21:04.167Z,0.00
2023-02-26T06:22:04.165Z,0.00
2023-02-26T06:23:04.157Z,0.00
2023-02-26T06:24:04.179Z,5.62
2023-02-26T06:25:04.126Z,5.62
2023-02-26T06:26:04.143Z,5.62
2023-02-26T06:27:04.103Z,5.62
2023-02-26T06:28:04.100Z,5.62
2023-02-26T06:29:04.097Z,5.62
2023-02-26T06:30:04.151Z,11.25
2023-02-26T06:31:04.222Z,11.25
2023-02-26T06:32:04.266Z,11.25
2023-02-26T06:33:04.050Z,11.25
2023-02-26T06:34:04.113Z,11.25
2023-02-26T06:35:04.051Z,11.25
2023-02-26T06:36:04.043Z,11.25
2023-02-26T06:37:04.017Z,11.25
2023-02-26T06:38:04.098Z,16.88
2023-02-26T06:39:04.013Z,16.88
2023-02-26T06:40:03.985Z,16.88
2023-02-26T06:41:03.974Z,16.88
2023-02-26T06:42:03.981Z,16.88
2023-02-26T06:43:03.957Z,16.88
2023-02-26T06:44:03.980Z,16.88
2023-02-26T06:45:03.942Z,16.88
2023-02-26T06:46:04.088Z,16.88
2023-02-26T06:47:03.944Z,16.88
2023-02-26T06:48:03.928Z,16.88
2023-02-26T06:49:03.932Z,16.88
2023-02-26T06:50:03.889Z,22.50
2023-02-26T06:51:04.183Z,22.50
2023-02-26T06:52:03.990Z,22.50
2023-02-26T06:53:03.874Z,22.50
2023-02-26T06:54:03.896Z,22.50
2023-02-26T06:55:03.841Z,22.50
2023-02-26T06:56:03.839Z,22.50
2023-02-26T06:57:03.861Z,22.50
2023-02-26T06:58:03.844Z,22.50
2023-02-26T06:59:03.815Z,22.50
2023-02-26T07:00:03.904Z,22.50
2023-02-26T07:01:03.845Z,22.50
2023-02-26T07:02:03.863Z,22.50
2023-02-26T07:03:03.827Z,22.50
2023-02-26T07:04:03.787Z,22.50
2023-02-26T07:05:03.742Z,22.50
2023-02-26T07:06:25.673Z,22.50
2023-02-26T07:07:04.718Z,22.50
2023-02-26T07:08:03.712Z,22.50
2023-02-26T07:09:03.843Z,22.50
2023-02-26T07:10:03.705Z,22.50
2023-02-26T07:11:03.694Z,22.50
2023-02-26T07:12:03.673Z,22.50
2023-02-26T07:13:03.685Z,22.50
2023-02-26T07:14:03.713Z,22.50
2023-02-26T07:15:03.648Z,22.50
2023-02-26T07:16:03.712Z,28.12
2023-02-26T07:17:03.682Z,28.12
2023-02-26T07:18:03.621Z,28.12
2023-02-26T07:19:03.619Z,28.12
2023-02-26T07:20:03.669Z,28.12
2023-02-26T07:21:03.592Z,33.75
2023-02-26T07:22:03.575Z,33.75
2023-02-26T07:23:03.637Z,33.75
2023-02-26T07:24:03.574Z,39.38
2023-02-26T07:25:03.558Z,45.00
2023-02-26T07:26:03.556Z,45.00
2023-02-26T07:27:03.555Z,45.00
2023-02-26T07:28:03.507Z,50.62
2023-02-26T07:29:03.594Z,50.62
2023-02-26T07:30:03.516Z,56.25
2023-02-26T07:31:03.750Z,67.50
2023-02-26T07:32:03.538Z,73.12
2023-02-26T07:33:03.479Z,73.12
2023-02-26T07:34:03.482Z,73.12
2023-02-26T07:35:03.467Z,78.75
2023-02-26T07:36:03.454Z,78.75
2023-02-26T07:37:03.462Z,78.75
2023-02-26T07:38:03.416Z,78.75
2023-02-26T07:39:03.444Z,73.12
2023-02-26T07:40:03.410Z,73.12
2023-02-26T07:41:03.410Z,73.12
2023-02-26T07:42:03.396Z,73.12
2023-02-26T07:43:03.384Z,67.50
2023-02-26T07:44:03.351Z,67.50
2023-02-26T07:45:03.406Z,61.88
2023-02-26T07:46:03.477Z,67.50
2023-02-26T07:47:03.333Z,67.50
2023-02-26T07:48:03.338Z,73.12
2023-02-26T07:49:03.315Z,73.12
2023-02-26T07:50:03.288Z,73.12
2023-02-26T07:51:03.291Z,73.12
2023-02-26T07:52:03.288Z,78.75
2023-02-26T07:53:03.321Z,84.38
2023-02-26T07:54:03.300Z,90.00
2023-02-26T07:55:03.263Z,95.62
2023-02-26T07:56:03.279Z,106.88
2023-02-26T07:57:03.221Z,106.88
2023-02-26T07:58:03.205Z,106.88
2023-02-26T07:59:03.210Z,106.88
2023-02-26T08:00:03.218Z,101.25
2023-02-26T08:01:03.202Z,95.62
2023-02-26T08:02:03.179Z,101.25
2023-02-26T08:03:03.176Z,112.50
2023-02-26T08:04:03.197Z,106.88
2023-02-26T08:05:03.193Z,101.25
2023-02-26T08:06:03.186Z,101.25
2023-02-26T08:07:03.116Z,101.25
2023-02-26T08:08:03.129Z,101.25
2023-02-26T08:09:03.109Z,95.62
2023-02-26T08:10:03.112Z,90.00
2023-02-26T08:11:03.084Z,95.62
2023-02-26T08:12:03.111Z,95.62
2023-02-26T08:13:03.072Z,90.00
2023-02-26T08:14:03.087Z,90.00
2023-02-26T08:15:03.067Z,90.00
2023-02-26T08:16:03.119Z,84.38
2023-02-26T08:17:03.034Z,78.75
2023-02-26T08:18:03.026Z,78.75
2023-02-26T08:19:03.000Z,84.38
2023-02-26T08:20:03.011Z,90.00
2023-02-26T08:21:02.985Z,101.25
2023-02-26T08:22:02.991Z,95.62
2023-02-26T08:23:02.965Z,84.38
2023-02-26T08:24:02.983Z,90.00
2023-02-26T08:25:02.977Z,101.25
2023-02-26T08:26:02.923Z,106.88
2023-02-26T08:27:02.926Z,112.50
2023-02-26T08:28:02.938Z,106.88
2023-02-26T08:29:02.903Z,106.88
2023-02-26T08:30:02.881Z,106.88
2023-02-26T08:31:02.991Z,106.88
2023-02-26T08:32:03.096Z,106.88
2023-02-26T08:33:02.873Z,112.50
2023-02-26T08:34:02.878Z,112.50
2023-02-26T08:35:02.996Z,106.88
2023-02-26T08:36:02.830Z,112.50
2023-02-26T08:37:02.882Z,118.12
2023-02-26T08:38:02.824Z,123.75
2023-02-26T08:39:02.802Z,123.75
2023-02-26T08:40:02.851Z,129.38
2023-02-26T08:41:02.777Z,123.75
2023-02-26T08:42:02.767Z,118.12
2023-02-26T08:43:02.773Z,106.88
2023-02-26T08:44:02.752Z,101.25
2023-02-26T08:45:02.744Z,95.62
2023-02-26T08:46:02.746Z,90.00
2023-02-26T08:47:02.716Z,90.00
2023-02-26T08:48:02.703Z,95.62
2023-02-26T08:49:02.711Z,101.25
2023-02-26T08:50:02.682Z,101.25
2023-02-26T08:51:02.746Z,106.88
2023-02-26T08:52:02.684Z,112.50
2023-02-26T08:53:02.660Z,118.12
2023-02-26T08:54:02.691Z,118.12
2023-02-26T08:55:02.672Z,118.12
2023-02-26T08:56:02.664Z,112.50
2023-02-26T08:57:02.620Z,112.50
2023-02-26T08:58:02.614Z,112.50
2023-02-26T08:59:02.593Z,112.50
2023-02-26T09:00:02.584Z,112.50
2023-02-26T09:01:02.684Z,112.50
2023-02-26T09:02:02.614Z,112.50
2023-02-26T09:03:02.580Z,112.50
2023-02-26T09:04:02.569Z,112.50
2023-02-26T09:05:02.538Z,112.50
2023-02-26T09:06:02.528Z,118.12
2023-02-26T09:07:02.591Z,118.12
2023-02-26T09:08:03.427Z,118.12
2023-02-26T09:09:02.537Z,118.12
2023-02-26T09:10:02.508Z,123.75
2023-02-26T09:11:02.488Z,129.38
2023-02-26T09:12:02.510Z,140.62
2023-02-26T09:13:02.457Z,140.62
2023-02-26T09:14:02.476Z,129.38
2023-02-26T09:15:02.442Z,123.75
2023-02-26T09:16:02.478Z,118.12
2023-02-26T09:17:02.419Z,112.50
2023-02-26T09:18:02.452Z,106.88
2023-02-26T09:19:02.399Z,106.88
2023-02-26T09:20:02.381Z,106.88
2023-02-26T09:21:02.454Z,112.50
2023-02-26T09:22:02.375Z,112.50
2023-02-26T09:23:02.379Z,118.12
2023-02-26T09:24:02.348Z,118.12
2023-02-26T09:25:02.483Z,118.12
2023-02-26T09:26:02.327Z,112.50
2023-02-26T09:27:02.384Z,112.50
2023-02-26T09:28:02.464Z,118.12
2023-02-26T09:29:02.300Z,123.75
2023-02-26T09:30:02.369Z,123.75
2023-02-26T09:31:02.350Z,118.12
2023-02-26T09:32:02.448Z,112.50
2023-02-26T09:33:02.293Z,106.88
2023-02-26T09:34:02.248Z,101.25
2023-02-26T09:35:02.248Z,101.25
2023-02-26T09:36:02.263Z,101.25
2023-02-26T09:37:02.236Z,101.25
2023-02-26T09:38:02.247Z,101.25
2023-02-26T09:39:02.212Z,106.88
2023-02-26T09:40:02.188Z,112.50
2023-02-26T09:41:02.238Z,112.50
2023-02-26T09:42:02.191Z,118.12
2023-02-26T09:43:02.307Z,118.12
2023-02-26T09:44:02.186Z,123.75
2023-02-26T09:45:02.145Z,123.75
2023-02-26T09:46:02.203Z,123.75
2023-02-26T09:47:02.125Z,123.75
2023-02-26T09:48:02.106Z,118.12
2023-02-26T09:49:02.490Z,112.50
2023-02-26T09:50:02.136Z,106.88
2023-02-26T09:51:02.129Z,101.25
2023-02-26T09:52:02.172Z,95.62
2023-02-26T09:53:02.080Z,101.25
2023-02-26T09:54:02.044Z,95.62
2023-02-26T09:55:02.119Z,101.25
2023-02-26T09:56:02.060Z,95.62
2023-02-26T09:57:02.091Z,101.25
2023-02-26T09:58:02.048Z,101.25
2023-02-26T09:59:02.023Z,106.88
2023-02-26T10:00:02.051Z,106.88
2023-02-26T10:01:01.979Z,106.88
2023-02-26T10:02:07.077Z,106.88
2023-02-26T10:03:02.061Z,101.25
2023-02-26T10:04:02.194Z,90.00
2023-02-26T10:05:02.032Z,90.00
2023-02-26T10:06:01.975Z,84.38
2023-02-26T10:07:01.987Z,84.38
2023-02-26T10:08:02.011Z,84.38
2023-02-26T10:09:01.973Z,90.00
2023-02-26T10:10:01.898Z,101.25
2023-02-26T10:11:01.918Z,112.50
2023-02-26T10:12:01.904Z,118.12
2023-02-26T10:13:01.971Z,123.75
2023-02-26T10:14:01.993Z,146.25
2023-02-26T10:15:01.873Z,157.50
2023-02-26T10:16:02.010Z,146.25
2023-02-26T10:17:01.985Z,129.38
2023-02-26T10:18:01.812Z,123.75
2023-02-26T10:19:01.812Z,118.12
2023-02-26T10:20:01.827Z,118.12
2023-02-26T10:21:01.846Z,118.12
2023-02-26T10:22:01.780Z,123.75
2023-02-26T10:23:01.806Z,129.38
2023-02-26T10:24:01.762Z,129.38
2023-02-26T10:25:01.791Z,123.75
2023-02-26T10:26:01.746Z,123.75
2023-02-26T10:27:01.751Z,118.12
2023-02-26T10:28:01.735Z,112.50
2023-02-26T10:29:01.713Z,118.12
2023-02-26T10:30:01.775Z,123.75
2023-02-26T10:31:01.780Z,123.75
2023-02-26T10:32:16.660Z,129.38
2023-02-26T10:33:01.714Z,140.62
2023-02-26T10:34:01.692Z,151.88
2023-02-26T10:35:01.671Z,146.25
2023-02-26T10:36:01.672Z,140.62
2023-02-26T10:37:01.649Z,135.00
2023-02-26T10:38:01.657Z,129.38
2023-02-26T10:39:01.671Z,123.75
2023-02-26T10:40:01.593Z,118.12
2023-02-26T10:41:01.580Z,112.50
2023-02-26T10:42:01.587Z,106.88
2023-02-26T10:43:01.603Z,106.88
2023-02-26T10:44:01.619Z,101.25
2023-02-26T10:45:01.558Z,101.25
2023-02-26T10:46:01.621Z,101.25
2023-02-26T10:47:01.541Z,101.25
2023-02-26T10:48:01.540Z,101.25
2023-02-26T10:49:09.050Z,101.25
2023-02-26T10:50:01.511Z,106.88
2023-02-26T10:51:01.490Z,106.88
2023-02-26T10:52:01.549Z,106.88
2023-02-26T10:53:01.517Z,101.25
2023-02-26T10:54:01.452Z,101.25
2023-02-26T10:55:01.435Z,101.25
2023-02-26T10:56:01.427Z,106.88
2023-02-26T10:57:01.421Z,118.12
2023-02-26T10:58:01.428Z,118.12
2023-02-26T10:59:01.405Z,123.75
2023-02-26T11:00:01.389Z,129.38
2023-02-26T11:01:01.438Z,129.38
2023-02-26T11:02:01.373Z,140.62
2023-02-26T11:03:01.398Z,151.88
2023-02-26T11:04:01.408Z,163.12
2023-02-26T11:05:07.516Z,163.12
2023-02-26T11:06:02.351Z,157.50
2023-02-26T11:07:01.316Z,146.25
2023-02-26T11:08:01.512Z,146.25
2023-02-26T11:09:01.318Z,140.62
2023-02-26T11:10:01.328Z,146.25
2023-02-26T11:11:01.285Z,135.00
2023-02-26T11:12:01.279Z,129.38
2023-02-26T11:13:01.277Z,135.00
2023-02-26T11:14:01.296Z,157.50
2023-02-26T11:15:01.302Z,185.62
2023-02-26T11:16:01.280Z,191.25
2023-02-26T11:17:01.240Z,185.62
2023-02-26T11:18:01.217Z,191.25
2023-02-26T11:19:01.237Z,191.25
2023-02-26T11:20:01.267Z,208.12
2023-02-26T11:21:01.201Z,230.62
2023-02-26T11:22:01.229Z,247.50
2023-02-26T11:23:01.186Z,281.25
2023-02-26T11:24:01.156Z,320.62
2023-02-26T11:25:01.211Z,275.62
2023-02-26T11:26:01.133Z,264.38
2023-02-26T11:27:01.145Z,298.12
2023-02-26T11:28:01.127Z,438.75
2023-02-26T11:29:01.135Z,658.12
2023-02-26T11:30:01.115Z,388.12
2023-02-26T11:31:01.276Z,427.50
2023-02-26T11:32:01.189Z,331.88
2023-02-26T11:33:01.107Z,337.50
2023-02-26T11:34:01.053Z,309.38
2023-02-26T11:35:01.053Z,286.88
2023-02-26T11:36:01.065Z,258.75
2023-02-26T11:37:01.031Z,236.25
2023-02-26T11:38:01.087Z,230.62
2023-02-26T11:39:01.010Z,230.62
2023-02-26T11:40:01.024Z,230.62
2023-02-26T11:41:01.004Z,225.00
2023-02-26T11:42:01.002Z,202.50
2023-02-26T11:43:01.010Z,174.38
2023-02-26T11:44:00.996Z,163.12
2023-02-26T11:45:00.948Z,163.12
2023-02-26T11:46:01.030Z,168.75
2023-02-26T11:47:00.968Z,180.00
2023-02-26T11:48:00.931Z,208.12
2023-02-26T11:49:00.916Z,236.25
2023-02-26T11:50:00.903Z,202.50
2023-02-26T11:51:00.882Z,213.75
2023-02-26T11:52:00.899Z,196.88
2023-02-26T11:53:00.886Z,180.00
2023-02-26T11:54:00.894Z,180.00
2023-02-26T11:55:00.854Z,180.00
2023-02-26T11:56:00.852Z,185.62
2023-02-26T11:57:00.827Z,213.75
2023-02-26T11:58:00.824Z,241.88
2023-02-26T11:59:00.810Z,241.88
2023-02-26T12:00:00.781Z,225.00
2023-02-26T12:01:00.994Z,208.12
2023-02-26T12:02:00.767Z,208.12
2023-02-26T12:03:00.763Z,191.25
2023-02-26T12:04:00.853Z,174.38
2023-02-26T12:05:00.744Z,174.38
2023-02-26T12:06:00.723Z,180.00
2023-02-26T12:07:00.741Z,180.00
2023-02-26T12:08:00.723Z,180.00
2023-02-26T12:09:00.688Z,180.00
2023-02-26T12:10:00.680Z,191.25
2023-02-26T12:11:00.706Z,202.50
2023-02-26T12:12:00.666Z,213.75
2023-02-26T12:13:00.666Z,202.50
2023-02-26T12:14:00.652Z,168.75
2023-02-26T12:15:00.665Z,163.12
2023-02-26T12:16:00.725Z,163.12
2023-02-26T12:17:00.646Z,174.38
2023-02-26T12:18:00.649Z,163.12
2023-02-26T12:19:00.606Z,146.25
2023-02-26T12:20:00.621Z,135.00
2023-02-26T12:21:00.571Z,135.00
2023-02-26T12:22:00.553Z,146.25
2023-02-26T12:23:00.583Z,163.12
2023-02-26T12:24:00.566Z,151.88
2023-02-26T12:25:00.528Z,151.88
2023-02-26T12:26:00.536Z,157.50
2023-02-26T12:27:00.528Z,151.88
2023-02-26T12:28:00.564Z,129.38
2023-02-26T12:29:00.492Z,129.38
2023-02-26T12:30:00.478Z,129.38
2023-02-26T12:31:00.553Z,123.75
2023-02-26T12:32:00.575Z,106.88
2023-02-26T12:33:01.478Z,101.25
2023-02-26T12:34:00.445Z,101.25
2023-02-26T12:35:00.426Z,101.25
2023-02-26T12:36:00.443Z,101.25
2023-02-26T12:37:00.411Z,123.75
2023-02-26T12:38:00.410Z,146.25
2023-02-26T12:39:00.429Z,151.88
2023-02-26T12:40:00.409Z,157.50
2023-02-26T12:41:00.391Z,157.50
2023-02-26T12:42:00.436Z,163.12
2023-02-26T12:43:00.342Z,163.12
2023-02-26T12:44:00.419Z,174.38
2023-02-26T12:45:00.325Z,174.38
2023-02-26T12:46:00.324Z,168.75
2023-02-26T12:47:00.379Z,168.75
2023-02-26T12:48:00.326Z,157.50
2023-02-26T12:49:00.977Z,151.88
2023-02-26T12:50:00.315Z,151.88
2023-02-26T12:51:00.301Z,157.50
2023-02-26T12:52:00.306Z,163.12
2023-02-26T12:53:00.265Z,157.50
2023-02-26T12:54:00.346Z,151.88
2023-02-26T12:55:00.252Z,146.25
2023-02-26T12:56:00.259Z,140.62